createdAt,value
2023-01-12T00:03:15.585Z,27.90
2023-01-12T00:05:42.508Z,30.00
2023-01-12T00:08:09.321Z,22.20
2023-01-12T00:10:36.232Z,46.00
2023-01-12T00:13:03.052Z,27.80
2023-01-12T00:15:48.616Z,21.30
2023-01-12T00:18:15.444Z,13.30
2023-01-12T00:20:48.440Z,17.90
2023-01-12T00:23:15.241Z,17.30
2023-01-12T00:25:42.008Z,22.90
2023-01-12T00:28:08.785Z,27.20
2023-01-12T00:30:35.559Z,13.20
2023-01-12T00:33:02.305Z,15.10
2023-01-12T00:35:29.236Z,22.00
2023-01-12T00:37:56.035Z,18.70
2023-01-12T00:40:22.919Z,14.30
2023-01-12T00:43:08.576Z,14.80
2023-01-12T00:45:35.372Z,16.20
2023-01-12T00:48:02.145Z,14.90
2023-01-12T00:50:29.598Z,13.00
2023-01-12T00:52:56.368Z,20.10
2023-01-12T00:55:23.502Z,21.00
2023-01-12T00:57:50.378Z,21.70
2023-01-12T01:00:18.198Z,18.60
2023-01-12T01:02:45.055Z,21.70
2023-01-12T01:05:12.176Z,30.50
2023-01-12T01:07:39.036Z,28.70
2023-01-12T01:10:06.570Z,25.70
2023-01-12T01:12:33.394Z,28.90
2023-01-12T01:15:00.319Z,22.50
2023-01-12T01:17:28.788Z,21.70
2023-01-12T01:19:55.590Z,29.00
2023-01-12T01:22:22.353Z,28.00
2023-01-12T01:24:49.241Z,25.10
2023-01-12T01:27:16.176Z,19.90
2023-01-12T01:29:43.001Z,22.50
2023-01-12T01:32:09.887Z,17.80
2023-01-12T01:34:37.379Z,16.80
2023-01-12T01:37:04.366Z,18.90
2023-01-12T01:39:31.176Z,16.30
2023-01-12T01:41:58.266Z,22.90
2023-01-12T01:44:31.248Z,19.40
2023-01-12T01:47:03.027Z,22.90
2023-01-12T01:49:37.195Z,21.70
2023-01-12T01:52:06.889Z,32.60
2023-01-12T01:54:36.619Z,28.10
2023-01-12T01:57:03.679Z,40.60
2023-01-12T01:59:32.636Z,36.40
2023-01-12T02:01:59.590Z,34.40
2023-01-12T02:04:26.507Z,41.00
2023-01-12T02:06:54.177Z,31.10
2023-01-12T02:09:22.674Z,31.10
2023-01-12T02:12:08.288Z,36.30
2023-01-12T02:14:54.052Z,38.60
2023-01-12T02:17:36.311Z,45.90
2023-01-12T02:20:21.567Z,22.10
2023-01-12T02:23:07.219Z,30.50
2023-01-12T02:25:33.957Z,28.40
2023-01-12T02:28:19.663Z,23.70
2023-01-12T02:31:40.673Z,32.10
2023-01-12T02:34:18.515Z,23.60
2023-01-12T02:36:52.981Z,13.20
2023-01-12T02:39:26.095Z,17.70
2023-01-12T02:42:25.661Z,13.30
2023-01-12T02:45:04.768Z,10.90
2023-01-12T02:47:55.814Z,15.60
2023-01-12T02:50:46.648Z,18.80
2023-01-12T02:53:24.532Z,17.60
2023-01-12T02:55:51.472Z,16.40
2023-01-12T02:58:19.007Z,14.20
2023-01-12T03:00:45.965Z,12.50
2023-01-12T03:03:12.964Z,10.40
2023-01-12T03:05:41.617Z,10.10
2023-01-12T03:08:09.715Z,13.50
2023-01-12T03:10:42.869Z,13.10
2023-01-12T03:13:12.206Z,9.70
2023-01-12T03:15:41.974Z,13.40
2023-01-12T03:18:12.716Z,10.50
2023-01-12T03:20:43.904Z,11.10
2023-01-12T03:23:17.676Z,12.80
2023-01-12T03:25:44.702Z,10.50
2023-01-12T03:28:12.921Z,19.50
2023-01-12T03:31:09.229Z,12.70
2023-01-12T03:33:36.037Z,16.90
2023-01-12T03:36:16.243Z,13.10
2023-01-12T03:38:47.083Z,12.50
2023-01-12T03:41:21.002Z,13.40
2023-01-12T03:43:51.132Z,11.40
2023-01-12T03:46:33.997Z,11.80
2023-01-12T03:49:03.256Z,14.10
2023-01-12T03:51:32.826Z,15.60
2023-01-12T03:53:59.720Z,16.40
2023-01-12T03:56:29.065Z,19.30
2023-01-12T03:58:55.900Z,18.50
2023-01-12T04:01:22.955Z,15.00
2023-01-12T04:03:49.935Z,12.80
2023-01-12T04:06:16.843Z,12.40
2023-01-12T04:08:43.651Z,16.60
2023-01-12T08:19:02.922Z,28.40
2023-01-12T08:21:39.789Z,30.30
2023-01-12T08:24:06.907Z,28.60
2023-01-12T08:26:36.865Z,24.10
2023-01-12T08:29:12.921Z,22.90
2023-01-12T08:31:39.958Z,18.30
2023-01-12T08:34:06.760Z,14.70
2023-01-12T08:36:33.603Z,12.30
2023-01-12T08:39:01.593Z,14.20
2023-01-12T08:41:34.643Z,29.20
2023-01-12T08:44:02.570Z,21.00
2023-01-12T08:46:37.435Z,16.40
2023-01-12T08:49:07.944Z,15.90
2023-01-12T08:51:35.440Z,16.20
2023-01-12T08:54:02.559Z,20.80
2023-01-12T08:56:29.564Z,15.90
2023-01-12T08:58:56.493Z,12.10
2023-01-12T09:01:23.559Z,18.00
2023-01-12T09:03:50.520Z,16.70
2023-01-12T09:06:19.408Z,16.20
2023-01-12T09:08:46.772Z,22.30
2023-01-12T09:11:15.662Z,10.50
2023-01-12T09:13:42.460Z,15.80
2023-01-12T09:16:14.629Z,17.20
2023-01-12T09:18:42.098Z,16.10
2023-01-12T09:21:10.993Z,19.90
2023-01-12T09:23:38.212Z,12.60
2023-01-12T09:26:06.602Z,16.10
2023-01-12T09:28:34.000Z,15.80
2023-01-12T09:31:05.738Z,19.10
2023-01-12T09:33:33.110Z,20.80
2023-01-12T09:36:03.767Z,16.70
2023-01-12T09:38:31.011Z,24.30
2023-01-12T09:41:02.398Z,14.40
2023-01-12T09:43:48.156Z,14.00
2023-01-12T09:46:37.040Z,15.10
2023-01-12T09:49:03.899Z,17.70
2023-01-12T09:51:36.464Z,18.90
2023-01-12T09:54:04.591Z,17.50
2023-01-12T09:56:40.807Z,15.30
2023-01-12T09:59:11.359Z,20.20
2023-01-12T10:01:38.345Z,16.30
2023-01-12T10:04:05.343Z,8.00
2023-01-12T10:06:33.147Z,12.50
2023-01-12T10:09:01.041Z,15.20
2023-01-12T10:11:57.221Z,18.20
2023-01-12T10:14:33.836Z,17.40
2023-01-12T10:17:10.229Z,16.20
2023-01-12T10:20:02.921Z,10.40
2023-01-12T10:22:38.202Z,11.20
2023-01-12T10:25:13.410Z,14.70
2023-01-12T10:27:42.453Z,15.40
2023-01-12T10:30:18.158Z,11.00
2023-01-12T10:32:45.076Z,14.50
2023-01-12T10:35:17.308Z,15.80
2023-01-12T10:37:55.072Z,16.10
2023-01-12T10:40:29.644Z,14.80
2023-01-12T10:43:21.839Z,14.60
2023-01-12T10:45:54.761Z,19.40
2023-01-12T10:51:20.181Z,36.50
2023-01-12T10:53:57.263Z,21.50
2023-01-12T10:56:30.066Z,22.40
2023-01-12T10:59:05.377Z,23.00
2023-01-12T11:01:53.542Z,22.40
2023-01-12T11:04:26.234Z,27.40
2023-01-12T11:07:08.452Z,21.60
2023-01-12T11:09:35.398Z,21.50
2023-01-12T11:12:03.823Z,15.30
2023-01-12T11:14:37.249Z,25.00
2023-01-12T11:17:30.886Z,18.50
2023-01-12T11:19:57.802Z,26.50
2023-01-12T11:22:27.634Z,24.00
2023-01-12T11:25:04.129Z,19.90
2023-01-12T11:27:36.173Z,25.20
2023-01-12T11:30:15.979Z,21.30
2023-01-12T11:33:12.848Z,20.80
2023-01-12T11:35:41.366Z,16.00
2023-01-12T11:38:18.959Z,23.40
2023-01-12T11:40:46.885Z,27.60
2023-01-12T11:43:35.179Z,16.70
2023-01-12T11:46:15.225Z,20.40
2023-01-12T11:49:10.870Z,21.00
2023-01-12T11:51:38.181Z,30.20
2023-01-12T11:54:05.920Z,14.00
2023-01-12T11:56:51.071Z,20.50
2023-01-12T16:19:00.004Z,44.40
2023-01-12T16:21:27.885Z,61.90
2023-01-12T16:23:57.747Z,52.50
2023-01-12T16:26:25.820Z,48.10
2023-01-12T16:28:52.737Z,42.50
2023-01-12T16:31:20.267Z,40.50
2023-01-12T16:33:47.066Z,51.80
2023-01-12T16:36:14.326Z,42.30
2023-01-12T16:38:41.168Z,36.60
2023-01-12T16:41:12.757Z,45.50
2023-01-12T16:43:39.495Z,36.70
2023-01-12T16:46:06.509Z,38.20
2023-01-12T16:48:34.078Z,35.50
2023-01-12T16:51:00.948Z,36.00
2023-01-12T16:53:28.060Z,44.80
2023-01-12T16:55:54.865Z,39.30
2023-01-12T16:58:21.748Z,39.30
2023-01-12T17:00:48.573Z,31.10
2023-01-12T17:03:15.408Z,32.90
2023-01-12T17:05:42.329Z,46.70
2023-01-12T17:08:09.382Z,32.10
2023-01-12T17:10:36.500Z,41.20
2023-01-12T17:13:03.394Z,42.60
2023-01-12T17:15:30.429Z,29.90
2023-01-12T17:17:57.513Z,40.90
2023-01-12T17:20:24.750Z,39.60
2023-01-12T17:22:51.834Z,51.30
2023-01-12T17:25:18.791Z,42.60
2023-01-12T17:27:45.666Z,48.40
2023-01-12T17:30:12.783Z,49.20
2023-01-12T17:32:39.792Z,39.00
2023-01-12T17:35:09.560Z,44.10
2023-01-12T17:37:36.474Z,40.30
2023-01-12T17:40:03.919Z,37.30
2023-01-12T17:42:51.684Z,43.90
2023-01-12T17:45:19.756Z,42.80
2023-01-12T17:47:46.629Z,39.80
2023-01-12T17:50:13.633Z,37.50
2023-01-12T17:52:40.507Z,46.40
2023-01-12T17:55:07.507Z,45.30
2023-01-12T17:57:36.541Z,37.60
2023-01-12T18:00:07.229Z,45.20
2023-01-12T18:02:40.919Z,44.60
2023-01-12T18:05:08.117Z,38.40
2023-01-12T18:07:35.646Z,39.70
2023-01-12T18:10:02.442Z,57.20
2023-01-12T18:12:30.211Z,40.60
2023-01-12T18:14:56.939Z,46.90
2023-01-12T18:17:24.386Z,41.70
2023-01-12T18:19:52.037Z,39.40
2023-01-12T18:22:18.823Z,45.20
2023-01-12T18:24:45.699Z,52.50
2023-01-12T18:27:12.789Z,43.70
2023-01-12T18:29:39.639Z,47.50
2023-01-12T18:32:06.594Z,29.30
2023-01-12T18:34:33.393Z,39.80
2023-01-12T18:37:00.280Z,34.70
2023-01-12T18:39:27.108Z,46.30
2023-01-12T18:42:12.487Z,51.00
2023-01-12T18:44:39.954Z,44.10
2023-01-12T18:47:25.380Z,41.50
2023-01-12T18:49:57.440Z,40.60
2023-01-12T18:52:42.713Z,37.00
2023-01-12T18:55:09.563Z,41.80
2023-01-12T18:57:36.381Z,42.90
2023-01-12T19:00:14.396Z,36.80
2023-01-12T19:02:42.016Z,61.00
2023-01-12T19:05:32.535Z,53.90
2023-01-12T19:08:00.415Z,54.40
2023-01-12T19:10:28.053Z,51.60
2023-01-12T19:13:18.105Z,44.90
2023-01-12T19:16:03.522Z,57.60
2023-01-12T19:18:30.391Z,54.60
2023-01-12T19:21:15.736Z,49.40
2023-01-12T19:24:01.198Z,38.90
2023-01-12T19:27:00.418Z,48.20
2023-01-12T19:29:27.262Z,40.00
2023-01-12T19:31:54.215Z,49.30
2023-01-12T19:34:21.045Z,48.60
2023-01-12T19:36:48.002Z,43.20
2023-01-12T19:39:15.595Z,45.50
2023-01-12T19:42:01.160Z,43.40
2023-01-12T19:44:27.974Z,53.60
2023-01-12T19:46:54.775Z,38.10
2023-01-12T19:49:21.534Z,42.40
2023-01-12T19:51:49.770Z,54.40
2023-01-12T19:54:16.579Z,52.50
2023-01-12T19:56:46.572Z,76.00
2023-01-12T19:59:14.346Z,53.20
2023-01-12T20:01:41.365Z,52.90
2023-01-12T20:04:08.525Z,43.10
2023-01-12T20:06:35.783Z,56.40
2023-01-12T20:09:02.658Z,46.00
2023-01-12T22:35:10.824Z,67.60
2023-01-12T22:37:38.182Z,65.60
2023-01-12T22:40:07.292Z,52.70
2023-01-12T22:42:52.894Z,54.60
2023-01-12T22:45:19.852Z,37.00
2023-01-12T22:47:51.587Z,44.40
2023-01-12T22:50:18.519Z,43.00
2023-01-12T22:52:50.601Z,46.10
2023-01-12T22:55:17.796Z,43.20
2023-01-12T22:57:44.702Z,33.90
2023-01-12T23:00:13.183Z,26.20
2023-01-12T23:02:59.056Z,36.90
2023-01-12T23:05:27.566Z,29.20
2023-01-12T23:07:55.234Z,31.20
2023-01-12T23:10:22.185Z,30.90
2023-01-12T23:13:07.841Z,39.30
2023-01-12T23:15:53.566Z,41.60
2023-01-12T23:18:22.187Z,48.90
2023-01-12T23:20:49.432Z,58.80
2023-01-12T23:23:18.249Z,38.10
2023-01-12T23:25:46.286Z,46.10
2023-01-12T23:28:14.053Z,24.10
2023-01-12T23:30:42.458Z,36.90
2023-01-12T23:33:13.405Z,36.70
2023-01-12T23:35:41.233Z,37.30
2023-01-12T23:38:09.658Z,45.60
2023-01-12T23:40:38.119Z,30.40
2023-01-12T23:43:05.074Z,41.20
2023-01-12T23:45:49.114Z,34.90
2023-01-12T23:48:16.017Z,42.40
2023-01-12T23:50:43.018Z,25.50
